Terminal Aerodrome Forecast
Issued by NWS Portland, OR

Home | Current Version | Previous Version | Text Only | Print | Product List | Glossary On
Versions: 1 2 3 4 5 6 7 8 9 10 11 12 13 14 15 16 17 18
000
FTUS46 KPQR 290520
TAFTTD
TAF
KTTD 290520Z 2906/3006 11007KT P6SM -RA OVC050
     FM290900 11010KT P6SM -RA BKN022 OVC035
     FM291300 12008KT P6SM -SHRA BKN015 OVC025
     FM291600 18012G20KT P6SM -SHRA BKN015 OVC025
     FM292100 20012KT P6SM -SHRA BKN022 OVC035
     FM300400 25010KT P6SM -SHRA SCT022 OVC035=

USA.gov is the U.S. government's official web portal to all federal, state and local government web resources and services.